Aeroporto :
LOGIN :

Iscrizione | Disclaimer

   EN    FR    IT 

 










Sommario :    VFR   VFR Marginale   IFR   IFR Intensivo   IFR Molto Intensivo
Visibilità : 
Base nubi : 
>= 8 km
>= 3000ft
5 / 8 km
1000 / 3000 ft
1500m / 5 km
500 / 1000 ft
800 / 1500m
200 / 500 ft
< 800m
< 200 ft
Simboli :   Temporali  Nebbia  Neve Forte  Precipitazioni Forti  Vento > 20 kt
SIGMETs :   Varie  Temporali  Ghiacco  Turbolenza  Onda orograficha  Ceneri Vulcaniche






- Altitudine del aeroporto : 124 ft
- Codice IATA : AVN


LFMV - Avignon Caumont

ULTIMO METAR :
  • 190600Z AUTO 14009KT 9999 BKN018 BKN025 OVC031 19/17 Q1010 TEMPO 14015G25KT SHRA BKN012 OVC020

METARs OBSOLETI :
  • 190530Z AUTO 14008KT 9999 BKN017 OVC070 19/17 Q1010 TEMPO 14015G25KT SHRA BKN012 OVC020
  • 190500Z AUTO 13010KT 9999 FEW016 OVC072 19/17 Q1010 TEMPO 14015G25KT SHRA BKN012 OVC020
  • 190430Z AUTO 14010KT 9999 FEW014 SCT039 OVC072 19/17 Q1010 TEMPO 14015G25KT SHRA BKN012 OVC020
  • 190400Z AUTO 13012KT 9999 SCT016 BKN026 BKN039 19/17 Q1010 TEMPO 14015G25KT SHRA BKN012 OVC020
  • 190330Z AUTO 14009KT 9999 FEW016/// SCT024/// BKN035/// ///CB 19/17 Q1010 TEMPO 14015G25KT SHRA BKN012 OVC020

TAF TAF LFMV
Valido dal 19 a 03 ore il 20 a 03 ore UTC


190200Z 1903/2003 14015KT 9999 BKN020 BKN030
PROB40
TEMPO 1903/2003 14015G25KT SHRA BKN012 OVC020
ATIS : +33 4 90 84 32 84



MetMap, La meteo Aeronautica in un colpo d'occhio ! - Copyright ORBIFLY Dicembre 2007 - Disclaimer

ORBIFLY MET'MAP TEAM :

Programmazione e sviluppo : Alexandra Zaïnal
Concezione e sviluppo : Baudouin d'Aumeries
Co-Programmazione e sviluppo : Marc-Olivier Méhu
Supporto tecnico e logistico : Manuel Goepfert
Aiuto per la traduzione : Arnaldo La Scala

Contatto : metmap@orbifly.com




FONTI E CREDITI :

   NOAA